createdAt,value
2022-09-09T00:07:25.160Z,16.47
2022-09-09T00:17:26.743Z,16.53
2022-09-09T00:27:49.896Z,16.53
2022-09-09T00:37:54.737Z,16.47
2022-09-09T00:47:58.073Z,16.36
2022-09-09T00:58:01.120Z,16.40
2022-09-09T01:08:10.019Z,16.46
2022-09-09T01:18:15.020Z,16.50
2022-09-09T01:28:29.614Z,16.49
2022-09-09T01:38:36.257Z,16.33
2022-09-09T01:48:38.267Z,16.21
2022-09-09T01:59:18.151Z,16.11
2022-09-09T02:09:23.661Z,16.00
2022-09-09T02:19:36.796Z,15.97
2022-09-09T02:29:43.919Z,16.03
2022-09-09T02:39:45.743Z,16.03
2022-09-09T02:49:53.363Z,16.03
2022-09-09T02:59:58.872Z,15.89
2022-09-09T03:10:01.075Z,15.78
2022-09-09T03:20:03.660Z,15.79
2022-09-09T03:30:06.155Z,15.79
2022-09-09T03:40:09.585Z,15.84
2022-09-09T03:50:12.149Z,15.77
2022-09-09T04:00:14.188Z,15.74
2022-09-09T04:10:17.234Z,15.79
2022-09-09T04:20:18.868Z,15.76
2022-09-09T04:30:22.849Z,15.81
2022-09-09T04:40:24.926Z,15.88
2022-09-09T04:50:26.775Z,15.84
2022-09-09T05:00:28.535Z,15.97
2022-09-09T05:10:33.583Z,16.12
2022-09-09T05:20:43.702Z,16.31
2022-09-09T05:30:45.290Z,16.69
2022-09-09T05:40:53.822Z,17.11
2022-09-09T05:50:55.495Z,17.53
2022-09-09T06:01:17.758Z,17.87
2022-09-09T06:11:22.664Z,18.19
2022-09-09T06:21:35.560Z,18.65
2022-09-09T06:31:38.097Z,19.01
2022-09-09T06:41:39.854Z,19.69
2022-09-09T06:51:45.359Z,19.93
2022-09-09T07:01:56.057Z,20.18
2022-09-09T07:12:00.634Z,19.64
2022-09-09T07:22:04.453Z,18.78
2022-09-09T07:32:06.084Z,19.32
2022-09-09T07:42:07.942Z,19.77
2022-09-09T07:52:09.610Z,20.19
2022-09-09T08:02:12.308Z,20.64
2022-09-09T08:12:14.707Z,21.19
2022-09-09T08:22:17.714Z,21.53
2022-09-09T08:32:20.529Z,21.92
2022-09-09T08:42:33.501Z,22.48
2022-09-09T08:53:00.601Z,23.89
2022-09-09T09:03:42.841Z,24.30
2022-09-09T09:13:56.520Z,25.40
2022-09-09T09:24:02.273Z,26.38
2022-09-09T09:34:03.909Z,27.69
2022-09-09T09:44:08.548Z,28.43
2022-09-09T09:54:19.905Z,28.41
2022-09-09T10:04:24.678Z,28.81
2022-09-09T10:14:38.497Z,30.94
2022-09-09T10:25:09.274Z,31.96
2022-09-09T10:35:13.757Z,32.50
2022-09-09T10:45:36.792Z,33.19
2022-09-09T10:55:43.970Z,33.35
2022-09-09T11:05:51.586Z,33.51
2022-09-09T11:16:06.392Z,34.68
2022-09-09T11:26:17.524Z,36.61
2022-09-09T11:36:56.893Z,37.03
2022-09-09T11:46:59.908Z,38.64
2022-09-09T11:57:05.780Z,40.33
2022-09-09T12:07:12.555Z,42.01
2022-09-09T12:17:17.493Z,41.94
2022-09-09T12:27:29.841Z,36.61
2022-09-09T12:37:49.512Z,34.86
2022-09-09T12:48:18.331Z,39.61
2022-09-09T12:58:21.870Z,42.28
2022-09-09T13:08:23.655Z,44.65
2022-09-09T13:18:45.628Z,45.03
2022-09-09T13:28:48.790Z,38.72
2022-09-09T13:38:53.672Z,32.60
2022-09-09T13:48:57.155Z,30.62
2022-09-09T13:58:59.944Z,30.79
2022-09-09T14:09:01.996Z,33.18
2022-09-09T14:19:03.701Z,29.79
2022-09-09T14:29:05.419Z,29.58
2022-09-09T14:39:08.759Z,30.06
2022-09-09T14:49:11.636Z,32.74
2022-09-09T14:59:14.437Z,28.60
2022-09-09T15:09:17.386Z,27.67
2022-09-09T15:19:20.374Z,27.31
2022-09-09T15:29:21.959Z,28.89
2022-09-09T15:39:23.845Z,34.55
2022-09-09T15:49:27.113Z,29.23
2022-09-09T15:59:30.855Z,26.50
2022-09-09T16:09:34.312Z,25.68
2022-09-09T16:19:36.171Z,25.59
2022-09-09T16:29:38.179Z,24.70
2022-09-09T16:39:39.868Z,24.25
2022-09-09T16:49:41.651Z,23.57
2022-09-09T16:59:43.767Z,23.19
2022-09-09T17:09:46.184Z,22.92
2022-09-09T17:19:55.005Z,22.51
2022-09-09T17:29:56.655Z,22.25
2022-09-09T17:39:59.233Z,21.76
2022-09-09T17:50:03.045Z,21.52
2022-09-09T18:00:08.875Z,21.50
2022-09-09T18:10:10.588Z,21.43
2022-09-09T18:20:12.309Z,21.42
2022-09-09T18:30:14.958Z,21.37
2022-09-09T18:40:16.824Z,21.36
2022-09-09T18:50:20.197Z,21.36
2022-09-09T19:00:23.889Z,21.14
2022-09-09T19:10:31.129Z,20.94
2022-09-09T19:20:33.223Z,20.64
2022-09-09T19:30:35.863Z,20.68
2022-09-09T19:40:40.000Z,20.52
2022-09-09T19:50:42.188Z,20.51
2022-09-09T20:00:53.937Z,20.57
2022-09-09T20:10:58.128Z,20.66
2022-09-09T20:21:06.852Z,20.66
2022-09-09T20:31:11.876Z,20.68
2022-09-09T20:41:18.516Z,20.70
2022-09-09T20:51:20.440Z,20.39
2022-09-09T21:01:22.233Z,20.19
2022-09-09T21:11:24.847Z,20.03
2022-09-09T21:21:27.573Z,19.83
2022-09-09T21:31:31.471Z,19.84
2022-09-09T21:41:34.302Z,19.72
2022-09-09T21:51:38.913Z,19.65
2022-09-09T22:01:42.275Z,19.62
2022-09-09T22:11:44.058Z,19.36
2022-09-09T22:21:45.780Z,19.29
2022-09-09T22:31:48.609Z,19.20
2022-09-09T22:41:50.572Z,19.08
2022-09-09T22:51:52.619Z,19.03
2022-09-09T23:01:54.385Z,19.00
2022-09-09T23:11:56.620Z,18.86
2022-09-09T23:22:03.045Z,18.79
2022-09-09T23:32:05.958Z,18.77
2022-09-09T23:42:12.120Z,18.77
2022-09-09T23:52:14.173Z,18.76
